Terminal Aerodrome Forecast
Issued by NWS

Home | Current Version | Previous Version | Text Only | Print | Product List | Glossary On
Versions: 1 2 3 4 5 6 7 8 9 10 11 12 13
000
FTUS45 KRIW 050534
TAFLND
TAF
KLND 050534Z 0506/0606 26008KT P6SM FEW110 SCT200
     FM052000 VRB08G15KT P6SM VCTS SCT040CB BKN080
     FM060300 03008KT P6SM -SHRA OVC040=

USA.gov is the U.S. government's official web portal to all federal, state and local government web resources and services.